首页
METAR-TAF:

METAR-TAF

机场 :

欧登塞, 丹麦

纬度: 55-29N, 经度: 010-20E, 海拔: 17米

当前天气观测

该预报发布于8小时和10分钟前的15:50 UTC
风速13节,风向西
温度 5°C
湿度 87%
气压 995 hPa
能见度10公里或以上
少量云层高于3900英尺
散云层高于20000英尺

METAR: EKOD 091550Z 26013KT 9999 FEW039 SCT200 05/03 Q0995

时间: 01:00 (00:00 UTC)

预报

该预报发布于12小时和0分钟前的12:00 UTC
预报有效从09日的 12点(UTC)到 09日的 16点(UTC)
风速15节,风向西南
能见度10公里或以上
多云层高于2000英尺
短暂存在
从 09日的 12点(UTC)到 09日的 13点(UTC)
风速18节,风向西转西南,有时为28节阵风
能見度: 4000
多云层高于1200英尺
多云层高于2000英尺, 积雨云.
阵雨, 小冰雹或雪球
成为
从 09日的 13点(UTC)到 09日的 15点(UTC)
风速15节,风向西

TAF: EKOD 091200Z 0912/0916 23015KT 9999 BKN020 TEMPO 0912/0913 24018G28KT 4000 SHRAGS BKN012 BKN020CB BECMG 0913/0915 28015KT

超过4000个机场的气象观测和天气预报(METAR&TAF报告)。

可查询的气象台以黄色和红色小点在地图上表示。

将鼠标移到小点上方,可查看气象台名称。

然后点击查看天气观测和预报。

如需切换地图:点击带黑十字的绿色按钮放大地图;点击带横线的绿色按钮缩小地图;或者点击绿色箭头查看邻近地区的地图。


METAR-TAF: